createdAt,value
2023-01-08T00:00:00.243Z,95950.81
2023-01-08T00:02:26.703Z,95952.22
2023-01-08T00:04:53.178Z,95949.66
2023-01-08T00:07:19.656Z,95935.81
2023-01-08T00:09:47.800Z,95932.53
2023-01-08T00:12:14.284Z,95926.28
2023-01-08T00:14:41.131Z,95932.59
2023-01-08T00:17:08.651Z,95930.59
2023-01-08T00:19:35.127Z,95921.28
2023-01-08T00:22:01.603Z,95917.63
2023-01-08T00:24:28.188Z,95903.22
2023-01-08T00:26:54.643Z,95916.22
2023-01-08T00:29:21.115Z,95913.44
2023-01-08T00:31:47.583Z,95906.78
2023-01-08T00:34:14.059Z,95916.75
2023-01-08T00:36:40.519Z,95922.91
2023-01-08T00:39:07.075Z,95910.56
2023-01-08T00:41:33.584Z,95910.47
2023-01-08T00:44:00.225Z,95911.22
2023-01-08T00:46:26.799Z,95900.72
2023-01-08T00:48:53.319Z,95892.75
2023-01-08T00:51:19.756Z,95884.88
2023-01-08T00:53:46.195Z,95901.38
2023-01-08T00:56:12.654Z,95902.25
2023-01-08T00:58:39.267Z,95896.50
2023-01-08T01:01:13.581Z,95896.50
2023-01-08T01:03:40.501Z,95880.81
2023-01-08T01:06:07.587Z,95874.22
2023-01-08T01:08:34.674Z,95893.16
2023-01-08T01:11:01.154Z,95885.06
2023-01-08T01:13:27.645Z,95876.06
2023-01-08T01:16:01.054Z,95881.16
2023-01-08T01:18:28.401Z,95870.88
2023-01-08T01:20:55.166Z,95880.69
2023-01-08T01:23:21.737Z,95860.22
2023-01-08T01:25:48.240Z,95874.22
2023-01-08T01:28:15.323Z,95867.84
2023-01-08T01:30:41.949Z,95865.09
2023-01-08T01:33:08.387Z,95864.41
2023-01-08T01:35:34.896Z,95882.69
2023-01-08T01:38:01.463Z,95874.69
2023-01-08T01:40:27.935Z,95874.22
2023-01-08T01:42:54.365Z,95877.78
2023-01-08T01:45:24.987Z,95869.50
2023-01-08T01:48:02.255Z,95861.91
2023-01-08T01:50:51.700Z,95862.31
2023-01-08T01:53:26.231Z,95865.88
2023-01-08T01:55:53.475Z,95865.56
2023-01-08T01:58:28.516Z,95857.56
2023-01-08T02:00:57.856Z,95864.78
2023-01-08T02:03:27.600Z,95860.66
2023-01-08T02:06:03.690Z,95873.16
2023-01-08T02:08:55.746Z,95856.16
2023-01-08T02:11:37.831Z,95850.00
2023-01-08T02:14:16.894Z,95848.47
2023-01-08T02:17:13.343Z,95845.41
2023-01-08T02:19:49.117Z,95848.47
2023-01-08T02:22:50.016Z,95847.91
2023-01-08T02:25:37.154Z,95831.16
2023-01-08T02:28:09.099Z,95842.69
2023-01-08T02:30:35.877Z,95833.25
2023-01-08T02:33:02.352Z,95832.81
2023-01-08T02:35:38.434Z,95829.81
2023-01-08T02:38:05.689Z,95836.84
2023-01-08T02:40:53.280Z,95825.78
2023-01-08T02:43:45.420Z,95823.28
2023-01-08T02:46:17.642Z,95806.13
2023-01-08T02:48:56.404Z,95815.59
2023-01-08T02:51:31.125Z,95813.91
2023-01-08T02:54:02.099Z,95827.25
2023-01-08T02:56:33.309Z,95829.16
2023-01-08T02:59:03.295Z,95824.06
2023-01-08T03:01:30.202Z,95831.66
2023-01-08T03:04:02.165Z,95814.78
2023-01-08T03:06:29.371Z,95828.03
2023-01-08T03:08:55.996Z,95823.31
2023-01-08T03:11:24.686Z,95802.56
2023-01-08T03:14:07.155Z,95808.22
2023-01-08T03:16:39.643Z,95802.72
2023-01-08T03:19:32.475Z,95798.72
2023-01-08T03:22:01.688Z,95783.84
2023-01-08T03:24:35.123Z,95772.00
2023-01-08T03:27:07.037Z,95768.69
2023-01-08T03:29:34.867Z,95772.91
2023-01-08T03:32:07.133Z,95776.47
2023-01-08T03:34:37.853Z,95766.66
2023-01-08T03:37:07.905Z,95758.38
2023-01-08T03:39:43.470Z,95746.00
2023-01-08T03:42:13.336Z,95755.31
2023-01-08T03:44:39.955Z,95751.56
2023-01-08T03:47:10.194Z,95760.50
2023-01-08T03:49:38.831Z,95755.88
2023-01-08T03:52:05.323Z,95757.59
2023-01-08T03:54:35.561Z,95754.91
2023-01-08T03:57:02.224Z,95749.25
2023-01-08T03:59:28.930Z,95750.00
2023-01-08T04:01:55.494Z,95753.84
2023-01-08T04:04:22.087Z,95743.84
2023-01-08T04:06:48.537Z,95728.38
2023-01-08T04:09:14.934Z,95733.16
2023-01-08T04:11:41.344Z,95731.00
2023-01-08T04:14:07.773Z,95745.03
2023-01-08T04:16:34.723Z,95732.06
2023-01-08T04:19:01.162Z,95743.00
2023-01-08T04:21:27.571Z,95747.94
2023-01-08T04:23:55.010Z,95751.66
2023-01-08T04:26:21.441Z,95736.78
2023-01-08T04:28:47.891Z,95744.16
2023-01-08T04:31:14.469Z,95749.56
2023-01-08T04:33:40.965Z,95744.16
2023-01-08T04:36:07.610Z,95734.88
2023-01-08T04:38:34.064Z,95730.13
2023-01-08T04:41:01.785Z,95719.50
2023-01-08T04:43:29.809Z,95714.03
2023-01-08T04:46:00.549Z,95710.38
2023-01-08T04:48:28.455Z,95710.84
2023-01-08T04:50:55.076Z,95702.41
2023-01-08T04:53:21.632Z,95696.63
2023-01-08T04:55:48.127Z,95693.28
2023-01-08T04:58:14.609Z,95686.56
2023-01-08T05:00:41.138Z,95681.28
2023-01-08T05:03:07.718Z,95684.81
2023-01-08T05:05:34.848Z,95659.22
2023-01-08T05:08:01.806Z,95659.31
2023-01-08T05:10:28.263Z,95657.84
2023-01-08T05:13:01.400Z,95672.06
2023-01-08T05:15:27.923Z,95675.72
2023-01-08T05:17:59.395Z,95671.56
2023-01-08T05:20:26.349Z,95653.50
2023-01-08T05:22:53.046Z,95668.59
2023-01-08T05:25:19.491Z,95670.59
2023-01-08T05:27:46.567Z,95675.09
2023-01-08T05:30:13.380Z,95672.69
2023-01-08T05:32:39.877Z,95662.00
2023-01-08T05:35:08.100Z,95679.19
2023-01-08T05:37:35.436Z,95669.69
2023-01-08T05:40:02.148Z,95670.16
2023-01-08T05:42:28.573Z,95675.34
2023-01-08T05:44:54.975Z,95675.28
2023-01-08T05:47:21.531Z,95673.06
2023-01-08T05:49:47.950Z,95683.06
2023-01-08T05:52:14.408Z,95695.34
2023-01-08T05:54:40.864Z,95678.31
2023-01-08T05:57:07.407Z,95680.81
2023-01-08T05:59:33.829Z,95684.28
2023-01-08T06:02:00.248Z,95680.06
2023-01-08T06:04:26.821Z,95674.31
2023-01-08T06:06:53.257Z,95681.97
2023-01-08T06:09:19.971Z,95682.94
2023-01-08T06:11:46.554Z,95687.53
2023-01-08T06:14:15.405Z,95684.78
2023-01-08T06:16:43.637Z,95682.75
2023-01-08T06:19:11.654Z,95682.91
2023-01-08T06:21:38.556Z,95674.88
2023-01-08T06:24:05.607Z,95662.00
2023-01-08T06:26:32.041Z,95667.53
2023-01-08T06:28:58.490Z,95657.78
2023-01-08T06:31:24.979Z,95636.53
2023-01-08T06:33:51.529Z,95628.50
2023-01-08T06:36:17.962Z,95640.84
2023-01-08T06:38:44.447Z,95631.16
2023-01-08T06:41:12.284Z,95640.09
2023-01-08T06:43:39.002Z,95634.53
2023-01-08T06:46:06.578Z,95622.50
2023-01-08T06:48:33.091Z,95627.13
2023-01-08T06:51:00.922Z,95642.88
2023-01-08T06:53:27.421Z,95635.88
2023-01-08T06:55:57.028Z,95627.84
2023-01-08T06:58:24.000Z,95626.06
2023-01-08T07:00:50.402Z,95632.81
2023-01-08T07:03:17.202Z,95654.22
2023-01-08T07:05:43.723Z,95640.56
2023-01-08T07:08:11.874Z,95643.69
2023-01-08T07:10:38.279Z,95651.44
2023-01-08T07:13:04.705Z,95649.84
2023-01-08T07:15:31.108Z,95650.44
2023-01-08T07:17:57.519Z,95646.88
2023-01-08T07:20:23.973Z,95642.81
2023-01-08T07:22:50.360Z,95633.91
2023-01-08T07:25:16.798Z,95652.06
2023-01-08T07:27:43.227Z,95654.59
2023-01-08T07:30:21.010Z,95682.03
2023-01-08T07:32:59.094Z,95677.75
2023-01-08T07:35:25.575Z,95672.03
2023-01-08T07:37:51.979Z,95688.84
2023-01-08T07:40:18.432Z,95684.72
2023-01-08T07:42:44.850Z,95680.28
2023-01-08T07:45:11.657Z,95658.25
2023-01-08T07:47:38.055Z,95670.59
2023-01-08T07:50:04.896Z,95656.78
2023-01-08T07:52:31.308Z,95673.38
2023-01-08T07:54:57.749Z,95658.19
2023-01-08T07:57:24.167Z,95671.34
2023-01-08T07:59:50.639Z,95680.44
2023-01-08T08:02:17.221Z,95676.69
2023-01-08T08:04:43.716Z,95656.19
2023-01-08T08:07:10.157Z,95667.06
2023-01-08T08:09:36.589Z,95651.56
2023-01-08T08:12:03.180Z,95654.63
2023-01-08T08:14:29.615Z,95661.81
2023-01-08T08:16:56.098Z,95672.09
2023-01-08T08:19:22.561Z,95675.84
2023-01-08T08:21:49.022Z,95671.81
2023-01-08T08:24:16.204Z,95662.47
2023-01-08T08:26:42.678Z,95648.09
2023-01-08T08:29:09.155Z,95643.03
2023-01-08T08:31:35.685Z,95661.09
2023-01-08T08:34:02.229Z,95645.53
2023-01-08T08:36:30.123Z,95656.31
2023-01-08T08:38:56.587Z,95638.72
2023-01-08T08:41:23.076Z,95645.78
2023-01-08T08:43:51.305Z,95649.59
2023-01-08T08:46:18.329Z,95646.41
2023-01-08T08:48:46.139Z,95645.94
2023-01-08T08:51:13.408Z,95653.88
2023-01-08T08:53:39.962Z,95654.47
2023-01-08T08:56:06.673Z,95645.28
2023-01-08T08:58:33.127Z,95626.28
2023-01-08T09:01:04.126Z,95638.56
2023-01-08T09:03:31.007Z,95641.16
2023-01-08T09:05:59.761Z,95627.84
2023-01-08T09:08:27.051Z,95652.81
2023-01-08T09:10:53.512Z,95662.00
2023-01-08T09:13:20.304Z,95673.16
2023-01-08T09:15:46.780Z,95678.81
2023-01-08T09:18:15.763Z,95683.72
2023-01-08T09:20:42.454Z,95662.75
2023-01-08T09:23:09.497Z,95689.28
2023-01-08T09:25:36.085Z,95693.56
2023-01-08T09:28:05.803Z,95679.47
2023-01-08T09:30:33.046Z,95670.59
2023-01-08T09:33:02.469Z,95663.56
2023-01-08T09:35:30.170Z,95666.59
2023-01-08T09:37:56.774Z,95671.66
2023-01-08T09:40:31.273Z,95675.94
2023-01-08T09:43:00.593Z,95687.75
2023-01-08T09:45:30.190Z,95689.13
2023-01-08T09:48:01.771Z,95697.72
2023-01-08T09:50:30.529Z,95693.41
2023-01-08T09:52:57.925Z,95701.06
2023-01-08T09:55:24.911Z,95706.44
2023-01-08T09:57:51.406Z,95714.06
2023-01-08T10:00:25.940Z,95719.84
2023-01-08T10:02:54.335Z,95713.94
2023-01-08T10:05:21.022Z,95704.91
2023-01-08T10:07:47.714Z,95691.44
2023-01-08T10:10:24.252Z,95706.38
2023-01-08T10:12:51.278Z,95702.94
2023-01-08T10:15:20.396Z,95701.38
2023-01-08T10:18:10.818Z,95697.94
2023-01-08T10:20:39.339Z,95698.88
2023-01-08T10:23:14.249Z,95686.81
2023-01-08T10:26:01.724Z,95682.94
2023-01-08T10:28:30.725Z,95673.75
2023-01-08T10:31:08.868Z,95656.69
2023-01-08T10:33:47.294Z,95649.28
2023-01-08T10:36:17.054Z,95644.88
2023-01-08T10:38:53.027Z,95632.56
2023-01-08T10:41:19.889Z,95620.28
2023-01-08T10:44:00.770Z,95635.50
2023-01-08T10:46:43.483Z,95625.38
2023-01-08T10:49:21.210Z,95629.72
2023-01-08T10:51:53.412Z,95609.09
2023-01-08T10:54:36.545Z,95614.63
2023-01-08T10:57:19.027Z,95601.78
2023-01-08T10:59:45.571Z,95597.06
2023-01-08T11:02:36.562Z,95617.50
2023-01-08T11:05:07.582Z,95611.44
2023-01-08T11:07:37.175Z,95624.66
2023-01-08T11:10:04.981Z,95619.09
2023-01-08T11:12:41.739Z,95608.38
2023-01-08T11:15:28.686Z,95623.22
2023-01-08T11:17:55.295Z,95623.94
2023-01-08T11:20:30.782Z,95637.50
2023-01-08T11:23:23.351Z,95621.00
2023-01-08T11:26:07.248Z,95607.63
2023-01-08T11:28:46.097Z,95618.16
2023-01-08T11:31:47.978Z,95626.56
2023-01-08T11:34:33.375Z,95592.47
2023-01-08T11:37:10.946Z,95619.41
2023-01-08T11:39:38.952Z,95619.28
2023-01-08T11:42:36.165Z,95618.94
2023-01-08T11:45:25.259Z,95608.84
2023-01-08T11:48:06.010Z,95614.69
2023-01-08T11:50:43.860Z,95602.94
2023-01-08T11:53:22.598Z,95606.53
2023-01-08T11:56:11.028Z,95592.13
2023-01-08T11:59:02.104Z,95591.22
2023-01-08T12:01:50.005Z,95584.91
2023-01-08T12:04:34.621Z,95584.19
2023-01-08T12:07:16.791Z,95573.19
2023-01-08T12:09:46.306Z,95583.63
2023-01-08T12:12:48.261Z,95586.81
2023-01-08T12:15:43.970Z,95596.66
2023-01-08T12:18:35.400Z,95608.28
2023-01-08T12:21:29.178Z,95592.63
2023-01-08T12:24:25.751Z,95586.13
2023-01-08T12:27:10.726Z,95586.50
2023-01-08T12:29:54.599Z,95593.88
2023-01-08T12:32:48.228Z,95581.91
2023-01-08T12:35:21.882Z,95583.75
2023-01-08T12:38:17.164Z,95590.97
2023-01-08T12:40:52.524Z,95581.72
2023-01-08T12:43:48.192Z,95572.50
2023-01-08T12:46:17.039Z,95565.63
2023-01-08T12:48:46.486Z,95567.13
2023-01-08T12:51:26.398Z,95558.88
2023-01-08T12:54:19.999Z,95534.03
2023-01-08T12:56:50.601Z,95519.44
2023-01-08T12:59:52.117Z,95524.88
2023-01-08T13:02:44.313Z,95530.97
2023-01-08T13:05:12.115Z,95523.50
2023-01-08T13:07:51.289Z,95522.00
2023-01-08T13:10:36.672Z,95502.63
2023-01-08T13:13:05.893Z,95512.25
2023-01-08T13:15:33.785Z,95494.94
2023-01-08T13:18:15.727Z,95490.59
2023-01-08T13:20:42.606Z,95480.78
2023-01-08T13:23:24.979Z,95479.25
2023-01-08T13:25:54.661Z,95490.78
2023-01-08T13:28:43.289Z,95480.66
2023-01-08T13:31:09.837Z,95482.00
2023-01-08T13:33:40.008Z,95469.56
2023-01-08T13:36:12.545Z,95497.34
2023-01-08T13:38:42.739Z,95493.69
2023-01-08T13:41:35.232Z,95491.75
2023-01-08T13:44:23.484Z,95485.97
2023-01-08T13:46:55.818Z,95487.63
2023-01-08T13:49:31.414Z,95493.28
2023-01-08T13:51:57.896Z,95481.72
2023-01-08T13:54:35.473Z,95498.84
2023-01-08T13:57:05.871Z,95489.56
2023-01-08T13:59:41.528Z,95491.22
2023-01-08T14:02:29.657Z,95499.69
2023-01-08T14:04:58.137Z,95484.00
2023-01-08T14:07:25.150Z,95500.97
2023-01-08T14:09:52.085Z,95492.47
2023-01-08T14:12:22.103Z,95488.00
2023-01-08T14:14:57.261Z,95488.22
2023-01-08T14:17:31.040Z,95484.41
2023-01-08T14:19:58.518Z,95489.50
2023-01-08T14:22:31.111Z,95488.88
2023-01-08T14:25:06.485Z,95482.44
2023-01-08T14:27:33.808Z,95478.22
2023-01-08T14:30:00.883Z,95485.81
2023-01-08T14:32:30.092Z,95478.19
2023-01-08T14:35:00.487Z,95489.28
2023-01-08T14:37:27.020Z,95479.53
2023-01-08T14:39:54.975Z,95465.47
2023-01-08T14:42:53.284Z,95470.00
2023-01-08T14:45:23.389Z,95484.59
2023-01-08T14:47:55.890Z,95468.59
2023-01-08T14:50:35.408Z,95456.84
2023-01-08T14:53:24.690Z,95475.44
2023-01-08T14:55:54.116Z,95470.97
2023-01-08T14:58:24.883Z,95450.63
2023-01-08T15:00:56.099Z,95458.69
2023-01-08T15:03:35.077Z,95472.94
2023-01-08T15:06:01.867Z,95459.28
2023-01-08T15:08:40.109Z,95467.75
2023-01-08T15:11:19.915Z,95475.69
2023-01-08T15:13:48.954Z,95481.47
2023-01-08T15:16:31.996Z,95472.09
2023-01-08T15:19:17.989Z,95479.81
2023-01-08T15:21:52.673Z,95472.50
2023-01-08T15:24:27.441Z,95484.59
2023-01-08T15:26:54.278Z,95470.66
2023-01-08T15:29:33.072Z,95466.97
2023-01-08T15:32:10.153Z,95465.88
2023-01-08T15:34:36.581Z,95451.69
2023-01-08T15:37:03.018Z,95452.91
2023-01-08T15:39:29.442Z,95469.25
2023-01-08T15:42:14.481Z,95468.34
2023-01-08T15:44:40.927Z,95451.09
2023-01-08T15:47:08.334Z,95454.53
2023-01-08T15:49:34.759Z,95469.91
2023-01-08T15:52:01.452Z,95453.91
2023-01-08T15:54:27.873Z,95438.31
2023-01-08T15:56:54.329Z,95450.75
2023-01-08T15:59:20.794Z,95445.06
2023-01-08T16:01:47.355Z,95433.44
2023-01-08T16:04:13.802Z,95410.78
2023-01-08T16:06:41.738Z,95421.13
2023-01-08T16:09:08.167Z,95417.53
2023-01-08T16:11:34.613Z,95397.63
2023-01-08T16:14:01.095Z,95392.69
2023-01-08T16:16:27.563Z,95397.78
2023-01-08T16:18:54.038Z,95392.38
2023-01-08T16:21:20.573Z,95392.69
2023-01-08T16:23:46.995Z,95400.94
2023-01-08T16:26:15.362Z,95400.19
2023-01-08T16:28:42.586Z,95406.38
2023-01-08T16:31:09.957Z,95399.75
2023-01-08T16:33:36.602Z,95386.25
2023-01-08T16:36:06.463Z,95381.94
2023-01-08T16:38:34.005Z,95375.41
2023-01-08T16:41:00.896Z,95374.97
2023-01-08T16:43:29.295Z,95368.66
2023-01-08T16:45:56.480Z,95364.13
2023-01-08T16:48:23.477Z,95367.03
2023-01-08T16:50:49.963Z,95365.38
2023-01-08T16:53:17.706Z,95354.09
2023-01-08T16:55:44.175Z,95348.94
2023-01-08T16:58:10.676Z,95329.47
2023-01-08T17:00:37.920Z,95343.84
2023-01-08T17:03:05.568Z,95327.19
2023-01-08T17:05:32.645Z,95323.19
2023-01-08T17:07:59.089Z,95302.28
2023-01-08T17:10:26.623Z,95299.91
2023-01-08T17:12:53.075Z,95292.31
2023-01-08T17:15:19.635Z,95283.69
2023-01-08T17:17:46.086Z,95271.66
2023-01-08T17:20:12.799Z,95278.72
2023-01-08T17:22:39.253Z,95275.03
2023-01-08T17:25:06.116Z,95279.34
2023-01-08T17:27:35.433Z,95277.16
2023-01-08T17:30:02.187Z,95261.63
2023-01-08T17:32:32.501Z,95248.13
2023-01-08T17:34:58.979Z,95244.97
2023-01-08T17:37:25.441Z,95242.16
2023-01-08T17:39:51.879Z,95251.38
2023-01-08T17:42:28.210Z,95242.16
2023-01-08T17:44:57.355Z,95238.66
2023-01-08T17:47:25.380Z,95237.66
2023-01-08T17:49:56.513Z,95246.34
2023-01-08T17:52:24.879Z,95236.06
2023-01-08T17:54:52.472Z,95236.88
2023-01-08T17:57:20.951Z,95238.59
2023-01-08T17:59:48.428Z,95241.84
2023-01-08T18:02:16.918Z,95241.06
2023-01-08T18:04:43.934Z,95241.78
2023-01-08T18:07:10.890Z,95251.97
2023-01-08T18:09:37.472Z,95246.31
2023-01-08T18:12:04.121Z,95231.53
2023-01-08T18:14:30.572Z,95234.84
2023-01-08T18:16:57.059Z,95220.50
2023-01-08T18:19:24.819Z,95225.38
2023-01-08T18:21:51.287Z,95229.91
2023-01-08T18:24:17.774Z,95239.44
2023-01-08T18:26:46.372Z,95221.84
2023-01-08T18:29:12.936Z,95221.84
2023-01-08T18:31:39.519Z,95216.84
2023-01-08T18:34:05.989Z,95195.19
2023-01-08T18:36:32.558Z,95195.19
2023-01-08T18:39:00.158Z,95191.28
2023-01-08T18:41:45.244Z,95180.31
2023-01-08T18:44:11.701Z,95183.19
2023-01-08T18:46:38.849Z,95181.00
2023-01-08T18:49:05.683Z,95175.03
2023-01-08T18:51:32.245Z,95159.06
2023-01-08T18:53:58.801Z,95160.69
2023-01-08T18:56:31.402Z,95150.28
2023-01-08T18:58:58.008Z,95127.41
2023-01-08T19:01:25.017Z,95115.47
2023-01-08T19:03:51.506Z,95106.44
2023-01-08T19:06:18.437Z,95099.72
2023-01-08T19:08:45.413Z,95094.84
2023-01-08T19:11:13.021Z,95079.72
2023-01-08T19:13:40.269Z,95096.78
2023-01-08T19:16:09.459Z,95087.81
2023-01-08T19:18:36.703Z,95093.56
2023-01-08T19:21:05.909Z,95093.91
2023-01-08T19:23:32.949Z,95097.56
2023-01-08T19:25:59.394Z,95102.22
2023-01-08T19:28:25.877Z,95097.19
2023-01-08T19:30:59.266Z,95098.09
2023-01-08T19:33:25.833Z,95085.81
2023-01-08T19:35:52.379Z,95086.50
2023-01-08T19:38:20.316Z,95091.38
2023-01-08T19:40:46.754Z,95086.72
2023-01-08T19:43:32.397Z,95075.97
2023-01-08T19:46:06.168Z,95080.41
2023-01-08T19:48:33.193Z,95067.06
2023-01-08T19:51:05.297Z,95065.88
2023-01-08T19:53:31.862Z,95062.84
2023-01-08T19:56:03.041Z,95055.34
2023-01-08T19:58:29.826Z,95040.94
2023-01-08T20:00:56.263Z,95038.63
2023-01-08T20:03:28.899Z,95014.78
2023-01-08T20:05:55.367Z,95011.50
2023-01-08T20:08:21.825Z,95010.19
2023-01-08T20:10:48.287Z,95012.59
2023-01-08T20:13:14.781Z,95008.50
2023-01-08T20:15:41.377Z,95011.41
2023-01-08T20:18:07.906Z,94991.34
2023-01-08T20:20:34.390Z,94986.81
2023-01-08T20:23:00.815Z,94989.31
2023-01-08T20:25:27.351Z,94978.56
2023-01-08T20:27:53.787Z,94981.06
2023-01-08T20:30:20.276Z,94987.47
2023-01-08T20:32:46.689Z,94971.31
2023-01-08T20:35:13.259Z,94978.56
2023-01-08T20:37:39.695Z,94977.47
2023-01-08T20:40:06.824Z,94968.56
2023-01-08T20:42:34.439Z,94954.03
2023-01-08T20:45:01.368Z,94946.97
2023-01-08T20:47:27.799Z,94943.84
2023-01-08T20:49:54.216Z,94937.78
2023-01-08T20:52:20.724Z,94932.00
2023-01-08T20:54:47.186Z,94921.91
2023-01-08T20:57:13.743Z,94913.34
2023-01-08T20:59:40.222Z,94902.06
2023-01-08T21:02:07.064Z,94904.56
2023-01-08T21:04:33.558Z,94906.94
2023-01-08T21:07:00.257Z,94894.13
2023-01-08T21:09:26.777Z,94903.25
2023-01-08T21:11:53.344Z,94901.72
2023-01-08T21:14:19.883Z,94886.09
2023-01-08T21:16:46.425Z,94880.91
2023-01-08T21:19:14.822Z,94875.78
2023-01-08T21:21:41.621Z,94850.09
2023-01-08T21:24:11.089Z,94860.94
2023-01-08T21:26:38.936Z,94858.75
2023-01-08T21:29:07.267Z,94868.47
2023-01-08T21:31:35.048Z,94872.16
2023-01-08T21:34:03.271Z,94874.88
2023-01-08T21:36:31.657Z,94870.19
2023-01-08T21:39:00.262Z,94874.75
2023-01-08T21:41:46.216Z,94877.69
2023-01-08T21:44:37.108Z,94882.25
2023-01-08T21:47:05.747Z,94891.47
2023-01-08T21:49:32.258Z,94883.22
2023-01-08T21:52:17.719Z,94892.13
2023-01-08T21:54:44.213Z,94887.56
2023-01-08T21:57:10.903Z,94875.13
2023-01-08T21:59:37.437Z,94885.97
2023-01-08T22:02:05.348Z,94894.31
2023-01-08T22:04:32.190Z,94883.25
2023-01-08T22:06:59.177Z,94893.13
2023-01-08T22:09:25.631Z,94892.25
2023-01-08T22:11:52.163Z,94894.31
2023-01-08T22:14:18.677Z,94894.00
2023-01-08T22:16:45.215Z,94890.63
2023-01-08T22:19:11.867Z,94889.31
2023-01-08T22:21:38.972Z,94883.34
2023-01-08T22:24:05.950Z,94886.16
2023-01-08T22:26:35.079Z,94886.47
2023-01-08T22:29:03.125Z,94874.78
2023-01-08T22:31:29.978Z,94843.50
2023-01-08T22:33:57.049Z,94833.19
2023-01-08T22:36:24.211Z,94841.44
2023-01-08T22:38:50.712Z,94839.59
2023-01-08T22:41:21.115Z,94842.81
2023-01-08T22:43:47.946Z,94831.50
2023-01-08T22:46:16.271Z,94824.34
2023-01-08T22:48:43.820Z,94824.53
2023-01-08T22:51:11.073Z,94800.84
2023-01-08T22:53:37.780Z,94799.81
2023-01-08T22:56:12.157Z,94805.38
2023-01-08T22:58:40.647Z,94811.78
2023-01-08T23:01:14.510Z,94803.38
2023-01-08T23:03:44.644Z,94801.53
2023-01-08T23:06:16.541Z,94797.16
2023-01-08T23:08:44.264Z,94794.47
2023-01-08T23:11:13.186Z,94777.47
2023-01-08T23:13:40.440Z,94785.22
2023-01-08T23:16:08.781Z,94780.09
2023-01-08T23:18:36.335Z,94793.63
2023-01-08T23:21:04.583Z,94764.28
2023-01-08T23:23:31.211Z,94770.50
2023-01-08T23:26:06.959Z,94775.38
2023-01-08T23:28:34.007Z,94769.41
2023-01-08T23:31:00.507Z,94784.91
2023-01-08T23:33:27.335Z,94757.63
2023-01-08T23:35:53.766Z,94784.13
2023-01-08T23:38:20.251Z,94764.28
2023-01-08T23:40:46.906Z,94735.00
2023-01-08T23:43:13.392Z,94748.63
2023-01-08T23:45:39.882Z,94736.34
2023-01-08T23:48:07.612Z,94727.94
2023-01-08T23:50:34.518Z,94718.94
2023-01-08T23:53:01.214Z,94707.00
2023-01-08T23:55:27.682Z,94704.72
2023-01-08T23:57:54.159Z,94706.06
